sensor_id;sensor_type;location;lat;lon;timestamp;pressure;altitude;pressure_sealevel;temperature
23208;BMP180;11773;52.570;13.052;2023-02-10T00:00:31;102845.00;;;6.60
23208;BMP180;11773;52.570;13.052;2023-02-10T00:03:00;102856.00;;;6.60
23208;BMP180;11773;52.570;13.052;2023-02-10T00:05:29;102855.00;;;6.60
23208;BMP180;11773;52.570;13.052;2023-02-10T00:08:00;102852.00;;;6.60
23208;BMP180;11773;52.570;13.052;2023-02-10T00:10:29;102853.00;;;6.60
23208;BMP180;11773;52.570;13.052;2023-02-10T00:12:59;102850.00;;;6.60
23208;BMP180;11773;52.570;13.052;2023-02-10T00:15:28;102848.00;;;6.60
23208;BMP180;11773;52.570;13.052;2023-02-10T00:17:58;102844.00;;;6.60
23208;BMP180;11773;52.570;13.052;2023-02-10T00:20:27;102845.00;;;6.60
23208;BMP180;11773;52.570;13.052;2023-02-10T00:22:57;102840.00;;;6.60
23208;BMP180;11773;52.570;13.052;2023-02-10T00:25:26;102838.00;;;6.60
23208;BMP180;11773;52.570;13.052;2023-02-10T00:27:56;102839.00;;;6.60
23208;BMP180;11773;52.570;13.052;2023-02-10T00:30:25;102852.00;;;6.60
23208;BMP180;11773;52.570;13.052;2023-02-10T00:32:54;102855.00;;;6.60
23208;BMP180;11773;52.570;13.052;2023-02-10T00:35:24;102870.00;;;6.60
23208;BMP180;11773;52.570;13.052;2023-02-10T00:37:54;102859.00;;;6.60
23208;BMP180;11773;52.570;13.052;2023-02-10T00:40:23;102885.00;;;6.60
23208;BMP180;11773;52.570;13.052;2023-02-10T00:42:53;102878.00;;;6.60
23208;BMP180;11773;52.570;13.052;2023-02-10T00:45:22;102864.00;;;6.60
23208;BMP180;11773;52.570;13.052;2023-02-10T00:47:52;102867.00;;;6.60
23208;BMP180;11773;52.570;13.052;2023-02-10T00:50:21;102869.00;;;6.60
23208;BMP180;11773;52.570;13.052;2023-02-10T00:52:51;102867.00;;;6.60
23208;BMP180;11773;52.570;13.052;2023-02-10T00:55:20;102872.00;;;6.60
23208;BMP180;11773;52.570;13.052;2023-02-10T00:57:50;102876.00;;;6.60
23208;BMP180;11773;52.570;13.052;2023-02-10T01:00:19;102898.00;;;6.60
23208;BMP180;11773;52.570;13.052;2023-02-10T01:02:49;102881.00;;;6.60
23208;BMP180;11773;52.570;13.052;2023-02-10T01:05:18;102882.00;;;6.70
23208;BMP180;11773;52.570;13.052;2023-02-10T01:07:48;102883.00;;;6.70
23208;BMP180;11773;52.570;13.052;2023-02-10T01:10:17;102883.00;;;6.60
23208;BMP180;11773;52.570;13.052;2023-02-10T01:12:47;102881.00;;;6.60
23208;BMP180;11773;52.570;13.052;2023-02-10T01:15:16;102886.00;;;6.60
23208;BMP180;11773;52.570;13.052;2023-02-10T01:17:46;102901.00;;;6.60
23208;BMP180;11773;52.570;13.052;2023-02-10T01:20:15;102887.00;;;6.60
23208;BMP180;11773;52.570;13.052;2023-02-10T01:22:45;102890.00;;;6.60
23208;BMP180;11773;52.570;13.052;2023-02-10T01:25:14;102890.00;;;6.60
23208;BMP180;11773;52.570;13.052;2023-02-10T01:27:44;102898.00;;;6.60
23208;BMP180;11773;52.570;13.052;2023-02-10T01:30:13;102898.00;;;6.60
23208;BMP180;11773;52.570;13.052;2023-02-10T01:32:43;102895.00;;;6.60
23208;BMP180;11773;52.570;13.052;2023-02-10T01:35:13;102895.00;;;6.60
23208;BMP180;11773;52.570;13.052;2023-02-10T01:37:42;102896.00;;;6.60
23208;BMP180;11773;52.570;13.052;2023-02-10T01:40:12;102897.00;;;6.60
23208;BMP180;11773;52.570;13.052;2023-02-10T01:42:41;102896.00;;;6.50
23208;BMP180;11773;52.570;13.052;2023-02-10T01:45:28;102886.00;;;6.50
23208;BMP180;11773;52.570;13.052;2023-02-10T01:48:00;102880.00;;;6.50
23208;BMP180;11773;52.570;13.052;2023-02-10T01:50:51;102877.00;;;6.50
23208;BMP180;11773;52.570;13.052;2023-02-10T01:53:16;102876.00;;;6.40
23208;BMP180;11773;52.570;13.052;2023-02-10T01:55:49;102870.00;;;6.40
23208;BMP180;11773;52.570;13.052;2023-02-10T01:58:23;102865.00;;;6.40
23208;BMP180;11773;52.570;13.052;2023-02-10T02:00:53;102857.00;;;6.40
23208;BMP180;11773;52.570;13.052;2023-02-10T02:03:23;102859.00;;;6.40
23208;BMP180;11773;52.570;13.052;2023-02-10T02:05:54;102864.00;;;6.40
23208;BMP180;11773;52.570;13.052;2023-02-10T02:08:32;102878.00;;;6.40
23208;BMP180;11773;52.570;13.052;2023-02-10T02:11:19;102872.00;;;6.30
23208;BMP180;11773;52.570;13.052;2023-02-10T02:16:46;102874.00;;;6.30
23208;BMP180;11773;52.570;13.052;2023-02-10T02:22:48;102891.00;;;6.20
23208;BMP180;11773;52.570;13.052;2023-02-10T02:25:41;102884.00;;;6.20
23208;BMP180;11773;52.570;13.052;2023-02-10T02:28:32;102878.00;;;6.10
23208;BMP180;11773;52.570;13.052;2023-02-10T02:31:25;102877.00;;;6.10
23208;BMP180;11773;52.570;13.052;2023-02-10T02:36:37;102878.00;;;6.10
23208;BMP180;11773;52.570;13.052;2023-02-10T02:39:07;102883.00;;;6.10
23208;BMP180;11773;52.570;13.052;2023-02-10T02:41:37;102885.00;;;6.10
23208;BMP180;11773;52.570;13.052;2023-02-10T02:44:07;102895.00;;;6.10
23208;BMP180;11773;52.570;13.052;2023-02-10T02:47:04;102884.00;;;6.10
23208;BMP180;11773;52.570;13.052;2023-02-10T02:52:55;102887.00;;;6.00
23208;BMP180;11773;52.570;13.052;2023-02-10T02:55:50;102898.00;;;6.00
23208;BMP180;11773;52.570;13.052;2023-02-10T02:58:46;102889.00;;;6.00
23208;BMP180;11773;52.570;13.052;2023-02-10T03:02:08;102902.00;;;5.90
23208;BMP180;11773;52.570;13.052;2023-02-10T03:03:54;102886.00;;;5.90
23208;BMP180;11773;52.570;13.052;2023-02-10T03:06:26;102888.00;;;5.90
23208;BMP180;11773;52.570;13.052;2023-02-10T03:08:55;102897.00;;;5.90
23208;BMP180;11773;52.570;13.052;2023-02-10T03:11:25;102904.00;;;5.90
23208;BMP180;11773;52.570;13.052;2023-02-10T03:13:54;102914.00;;;5.90
23208;BMP180;11773;52.570;13.052;2023-02-10T03:16:24;102903.00;;;6.00
23208;BMP180;11773;52.570;13.052;2023-02-10T03:18:53;102906.00;;;6.00
23208;BMP180;11773;52.570;13.052;2023-02-10T03:21:23;102902.00;;;6.00
23208;BMP180;11773;52.570;13.052;2023-02-10T03:23:53;102914.00;;;6.00
23208;BMP180;11773;52.570;13.052;2023-02-10T03:26:23;102887.00;;;6.00
23208;BMP180;11773;52.570;13.052;2023-02-10T03:28:52;102898.00;;;6.00
23208;BMP180;11773;52.570;13.052;2023-02-10T03:31:22;102891.00;;;6.00
23208;BMP180;11773;52.570;13.052;2023-02-10T03:33:52;102908.00;;;6.00
23208;BMP180;11773;52.570;13.052;2023-02-10T03:36:22;102907.00;;;6.00
23208;BMP180;11773;52.570;13.052;2023-02-10T03:38:51;102916.00;;;6.00
23208;BMP180;11773;52.570;13.052;2023-02-10T03:41:21;102924.00;;;6.00
23208;BMP180;11773;52.570;13.052;2023-02-10T03:43:50;102921.00;;;6.00
23208;BMP180;11773;52.570;13.052;2023-02-10T03:46:20;102916.00;;;6.00
23208;BMP180;11773;52.570;13.052;2023-02-10T03:48:49;102919.00;;;6.00
23208;BMP180;11773;52.570;13.052;2023-02-10T03:51:19;102903.00;;;6.00
23208;BMP180;11773;52.570;13.052;2023-02-10T03:53:48;102904.00;;;6.10
23208;BMP180;11773;52.570;13.052;2023-02-10T03:56:18;102903.00;;;6.10
23208;BMP180;11773;52.570;13.052;2023-02-10T03:58:47;102907.00;;;6.10
23208;BMP180;11773;52.570;13.052;2023-02-10T04:01:17;102908.00;;;6.10
23208;BMP180;11773;52.570;13.052;2023-02-10T04:03:47;102908.00;;;6.10
23208;BMP180;11773;52.570;13.052;2023-02-10T04:06:16;102899.00;;;6.20
23208;BMP180;11773;52.570;13.052;2023-02-10T04:08:48;102903.00;;;6.20
23208;BMP180;11773;52.570;13.052;2023-02-10T04:11:17;102904.00;;;6.20
23208;BMP180;11773;52.570;13.052;2023-02-10T04:13:47;102914.00;;;6.20
23208;BMP180;11773;52.570;13.052;2023-02-10T04:16:17;102905.00;;;6.20
23208;BMP180;11773;52.570;13.052;2023-02-10T04:18:48;102902.00;;;6.20
23208;BMP180;11773;52.570;13.052;2023-02-10T04:21:18;102901.00;;;6.30
23208;BMP180;11773;52.570;13.052;2023-02-10T04:23:47;102910.00;;;6.30
23208;BMP180;11773;52.570;13.052;2023-02-10T04:26:17;102923.00;;;6.30
23208;BMP180;11773;52.570;13.052;2023-02-10T04:28:47;102914.00;;;6.30
23208;BMP180;11773;52.570;13.052;2023-02-10T04:31:16;102905.00;;;6.40
23208;BMP180;11773;52.570;13.052;2023-02-10T04:33:47;102911.00;;;6.40
23208;BMP180;11773;52.570;13.052;2023-02-10T04:36:16;102915.00;;;6.40
23208;BMP180;11773;52.570;13.052;2023-02-10T04:38:46;102919.00;;;6.40
23208;BMP180;11773;52.570;13.052;2023-02-10T04:41:15;102913.00;;;6.50
23208;BMP180;11773;52.570;13.052;2023-02-10T04:43:45;102923.00;;;6.50
23208;BMP180;11773;52.570;13.052;2023-02-10T04:46:14;102923.00;;;6.50
23208;BMP180;11773;52.570;13.052;2023-02-10T04:48:44;102924.00;;;6.50
23208;BMP180;11773;52.570;13.052;2023-02-10T04:51:13;102934.00;;;6.60
23208;BMP180;11773;52.570;13.052;2023-02-10T04:53:44;102928.00;;;6.60
23208;BMP180;11773;52.570;13.052;2023-02-10T04:56:15;102926.00;;;6.60
23208;BMP180;11773;52.570;13.052;2023-02-10T04:58:45;102932.00;;;6.60
23208;BMP180;11773;52.570;13.052;2023-02-10T05:01:14;102928.00;;;6.60
23208;BMP180;11773;52.570;13.052;2023-02-10T05:03:44;102930.00;;;6.60
23208;BMP180;11773;52.570;13.052;2023-02-10T05:06:15;102934.00;;;6.70
23208;BMP180;11773;52.570;13.052;2023-02-10T05:08:45;102919.00;;;6.60
23208;BMP180;11773;52.570;13.052;2023-02-10T05:11:16;102925.00;;;6.60
23208;BMP180;11773;52.570;13.052;2023-02-10T05:13:45;102933.00;;;6.60
23208;BMP180;11773;52.570;13.052;2023-02-10T05:16:16;102925.00;;;6.60
23208;BMP180;11773;52.570;13.052;2023-02-10T05:18:45;102935.00;;;6.60
23208;BMP180;11773;52.570;13.052;2023-02-10T05:21:15;102919.00;;;6.60
23208;BMP180;11773;52.570;13.052;2023-02-10T05:23:44;102924.00;;;6.70
23208;BMP180;11773;52.570;13.052;2023-02-10T05:26:14;102948.00;;;6.70
23208;BMP180;11773;52.570;13.052;2023-02-10T05:28:43;102935.00;;;6.70
23208;BMP180;11773;52.570;13.052;2023-02-10T05:31:13;102957.00;;;6.70
23208;BMP180;11773;52.570;13.052;2023-02-10T05:33:42;102947.00;;;6.70
23208;BMP180;11773;52.570;13.052;2023-02-10T05:36:12;102941.00;;;6.60
23208;BMP180;11773;52.570;13.052;2023-02-10T05:38:41;102942.00;;;6.70
23208;BMP180;11773;52.570;13.052;2023-02-10T05:41:12;102932.00;;;6.60
23208;BMP180;11773;52.570;13.052;2023-02-10T05:43:42;102932.00;;;6.60
23208;BMP180;11773;52.570;13.052;2023-02-10T05:46:11;102938.00;;;6.60
23208;BMP180;11773;52.570;13.052;2023-02-10T05:48:41;102927.00;;;6.60
23208;BMP180;11773;52.570;13.052;2023-02-10T05:51:10;102933.00;;;6.60
23208;BMP180;11773;52.570;13.052;2023-02-10T05:53:40;102928.00;;;6.60
23208;BMP180;11773;52.570;13.052;2023-02-10T05:56:09;102935.00;;;6.60
23208;BMP180;11773;52.570;13.052;2023-02-10T05:58:39;102933.00;;;6.60
23208;BMP180;11773;52.570;13.052;2023-02-10T06:01:10;102934.00;;;6.60
23208;BMP180;11773;52.570;13.052;2023-02-10T06:03:39;102933.00;;;6.60
23208;BMP180;11773;52.570;13.052;2023-02-10T06:06:09;102930.00;;;6.60
23208;BMP180;11773;52.570;13.052;2023-02-10T06:08:39;102941.00;;;6.60
23208;BMP180;11773;52.570;13.052;2023-02-10T06:11:08;102951.00;;;6.60
23208;BMP180;11773;52.570;13.052;2023-02-10T06:13:38;102958.00;;;6.60
23208;BMP180;11773;52.570;13.052;2023-02-10T06:16:07;102933.00;;;6.50
23208;BMP180;11773;52.570;13.052;2023-02-10T06:18:37;102958.00;;;6.60
23208;BMP180;11773;52.570;13.052;2023-02-10T06:21:07;102959.00;;;6.60
23208;BMP180;11773;52.570;13.052;2023-02-10T06:23:36;102964.00;;;6.60
23208;BMP180;11773;52.570;13.052;2023-02-10T06:26:06;102960.00;;;6.50
23208;BMP180;11773;52.570;13.052;2023-02-10T06:28:35;102965.00;;;6.60
23208;BMP180;11773;52.570;13.052;2023-02-10T06:31:08;102972.00;;;6.50
23208;BMP180;11773;52.570;13.052;2023-02-10T06:33:38;102965.00;;;6.50
23208;BMP180;11773;52.570;13.052;2023-02-10T06:36:08;102971.00;;;6.50
23208;BMP180;11773;52.570;13.052;2023-02-10T06:38:38;102969.00;;;6.50
23208;BMP180;11773;52.570;13.052;2023-02-10T06:41:08;102987.00;;;6.50
23208;BMP180;11773;52.570;13.052;2023-02-10T06:43:37;102966.00;;;6.50
23208;BMP180;11773;52.570;13.052;2023-02-10T06:46:07;102969.00;;;6.50
23208;BMP180;11773;52.570;13.052;2023-02-10T06:48:37;102965.00;;;6.50
23208;BMP180;11773;52.570;13.052;2023-02-10T06:51:06;102992.00;;;6.50
23208;BMP180;11773;52.570;13.052;2023-02-10T06:53:35;102998.00;;;6.50
23208;BMP180;11773;52.570;13.052;2023-02-10T06:56:06;102990.00;;;6.50
23208;BMP180;11773;52.570;13.052;2023-02-10T06:58:36;102990.00;;;6.50
23208;BMP180;11773;52.570;13.052;2023-02-10T07:01:11;102993.00;;;6.50
23208;BMP180;11773;52.570;13.052;2023-02-10T07:03:40;102981.00;;;6.50
23208;BMP180;11773;52.570;13.052;2023-02-10T07:06:10;102990.00;;;6.50
23208;BMP180;11773;52.570;13.052;2023-02-10T07:08:39;102997.00;;;6.60
23208;BMP180;11773;52.570;13.052;2023-02-10T07:11:09;102998.00;;;6.60
23208;BMP180;11773;52.570;13.052;2023-02-10T07:13:38;103002.00;;;6.60
23208;BMP180;11773;52.570;13.052;2023-02-10T07:16:08;103004.00;;;6.60
23208;BMP180;11773;52.570;13.052;2023-02-10T07:18:39;103012.00;;;6.60
23208;BMP180;11773;52.570;13.052;2023-02-10T07:21:08;103013.00;;;6.60
23208;BMP180;11773;52.570;13.052;2023-02-10T07:23:38;103026.00;;;6.60
23208;BMP180;11773;52.570;13.052;2023-02-10T07:26:07;103031.00;;;6.60
23208;BMP180;11773;52.570;13.052;2023-02-10T07:28:38;103019.00;;;6.60
23208;BMP180;11773;52.570;13.052;2023-02-10T07:31:08;103017.00;;;6.60
23208;BMP180;11773;52.570;13.052;2023-02-10T07:33:38;103020.00;;;6.70
23208;BMP180;11773;52.570;13.052;2023-02-10T07:36:08;103018.00;;;6.70
23208;BMP180;11773;52.570;13.052;2023-02-10T07:38:37;103024.00;;;6.70
23208;BMP180;11773;52.570;13.052;2023-02-10T07:41:08;103035.00;;;6.70
23208;BMP180;11773;52.570;13.052;2023-02-10T07:43:37;103038.00;;;6.80
23208;BMP180;11773;52.570;13.052;2023-02-10T07:46:06;103033.00;;;6.80
23208;BMP180;11773;52.570;13.052;2023-02-10T07:48:36;103046.00;;;6.80
23208;BMP180;11773;52.570;13.052;2023-02-10T07:51:06;103041.00;;;6.80
23208;BMP180;11773;52.570;13.052;2023-02-10T07:53:35;103036.00;;;6.90
23208;BMP180;11773;52.570;13.052;2023-02-10T07:56:06;103042.00;;;6.90
23208;BMP180;11773;52.570;13.052;2023-02-10T07:58:37;103047.00;;;6.90
23208;BMP180;11773;52.570;13.052;2023-02-10T08:01:11;103047.00;;;7.00
23208;BMP180;11773;52.570;13.052;2023-02-10T08:03:40;103030.00;;;7.00
23208;BMP180;11773;52.570;13.052;2023-02-10T08:06:10;103033.00;;;7.00
23208;BMP180;11773;52.570;13.052;2023-02-10T08:08:39;103033.00;;;7.00
23208;BMP180;11773;52.570;13.052;2023-02-10T08:11:09;103030.00;;;7.10
23208;BMP180;11773;52.570;13.052;2023-02-10T08:13:38;103036.00;;;7.10
23208;BMP180;11773;52.570;13.052;2023-02-10T08:16:08;103054.00;;;7.10
23208;BMP180;11773;52.570;13.052;2023-02-10T08:18:40;103055.00;;;7.20
23208;BMP180;11773;52.570;13.052;2023-02-10T08:21:10;103062.00;;;7.20
23208;BMP180;11773;52.570;13.052;2023-02-10T08:23:39;103058.00;;;7.20
23208;BMP180;11773;52.570;13.052;2023-02-10T08:26:12;103062.00;;;7.30
23208;BMP180;11773;52.570;13.052;2023-02-10T08:28:41;103059.00;;;7.30
23208;BMP180;11773;52.570;13.052;2023-02-10T08:31:11;103054.00;;;7.40
23208;BMP180;11773;52.570;13.052;2023-02-10T08:33:41;103054.00;;;7.40
23208;BMP180;11773;52.570;13.052;2023-02-10T08:36:16;103064.00;;;7.40
23208;BMP180;11773;52.570;13.052;2023-02-10T08:38:48;103080.00;;;7.40
23208;BMP180;11773;52.570;13.052;2023-02-10T08:41:19;103072.00;;;7.50
23208;BMP180;11773;52.570;13.052;2023-02-10T08:43:49;103081.00;;;7.50
23208;BMP180;11773;52.570;13.052;2023-02-10T08:46:18;103079.00;;;7.60
23208;BMP180;11773;52.570;13.052;2023-02-10T08:48:48;103097.00;;;7.60
23208;BMP180;11773;52.570;13.052;2023-02-10T08:51:17;103083.00;;;7.70
23208;BMP180;11773;52.570;13.052;2023-02-10T08:53:47;103093.00;;;7.80
23208;BMP180;11773;52.570;13.052;2023-02-10T08:56:19;103088.00;;;7.80
23208;BMP180;11773;52.570;13.052;2023-02-10T08:58:48;103095.00;;;7.90
23208;BMP180;11773;52.570;13.052;2023-02-10T09:01:24;103090.00;;;7.90
23208;BMP180;11773;52.570;13.052;2023-02-10T09:03:58;103096.00;;;7.90
23208;BMP180;11773;52.570;13.052;2023-02-10T09:06:33;103093.00;;;7.90
23208;BMP180;11773;52.570;13.052;2023-02-10T09:09:04;103099.00;;;8.00
23208;BMP180;11773;52.570;13.052;2023-02-10T09:11:34;103104.00;;;8.10
23208;BMP180;11773;52.570;13.052;2023-02-10T09:14:03;103105.00;;;8.10
23208;BMP180;11773;52.570;13.052;2023-02-10T09:16:34;103106.00;;;8.10
23208;BMP180;11773;52.570;13.052;2023-02-10T09:19:04;103112.00;;;8.20
23208;BMP180;11773;52.570;13.052;2023-02-10T09:21:34;103111.00;;;8.20
23208;BMP180;11773;52.570;13.052;2023-02-10T09:24:05;103108.00;;;8.30
23208;BMP180;11773;52.570;13.052;2023-02-10T09:26:35;103118.00;;;8.30
23208;BMP180;11773;52.570;13.052;2023-02-10T09:29:04;103094.00;;;8.30
23208;BMP180;11773;52.570;13.052;2023-02-10T09:31:36;103118.00;;;8.40
23208;BMP180;11773;52.570;13.052;2023-02-10T09:34:06;103100.00;;;8.40
23208;BMP180;11773;52.570;13.052;2023-02-10T09:36:36;103105.00;;;8.50
23208;BMP180;11773;52.570;13.052;2023-02-10T09:39:05;103106.00;;;8.50
23208;BMP180;11773;52.570;13.052;2023-02-10T09:41:44;103114.00;;;8.50
23208;BMP180;11773;52.570;13.052;2023-02-10T09:44:22;103112.00;;;8.60
23208;BMP180;11773;52.570;13.052;2023-02-10T09:47:25;103113.00;;;8.60
23208;BMP180;11773;52.570;13.052;2023-02-10T09:50:21;103108.00;;;8.60
23208;BMP180;11773;52.570;13.052;2023-02-10T09:53:07;103116.00;;;8.60
23208;BMP180;11773;52.570;13.052;2023-02-10T09:55:55;103119.00;;;8.70
23208;BMP180;11773;52.570;13.052;2023-02-10T09:58:55;103115.00;;;8.70
23208;BMP180;11773;52.570;13.052;2023-02-10T10:01:37;103137.00;;;8.70
23208;BMP180;11773;52.570;13.052;2023-02-10T10:04:20;103126.00;;;8.70
23208;BMP180;11773;52.570;13.052;2023-02-10T10:06:55;103134.00;;;8.80
23208;BMP180;11773;52.570;13.052;2023-02-10T10:09:45;103140.00;;;8.80
23208;BMP180;11773;52.570;13.052;2023-02-10T10:12:18;103132.00;;;8.80
23208;BMP180;11773;52.570;13.052;2023-02-10T10:14:48;103148.00;;;8.90
23208;BMP180;11773;52.570;13.052;2023-02-10T10:17:35;103141.00;;;8.90
23208;BMP180;11773;52.570;13.052;2023-02-10T10:20:50;103129.00;;;9.00
23208;BMP180;11773;52.570;13.052;2023-02-10T10:24:04;103139.00;;;9.00
23208;BMP180;11773;52.570;13.052;2023-02-10T10:27:09;103138.00;;;9.00
23208;BMP180;11773;52.570;13.052;2023-02-10T10:29:58;103134.00;;;9.00
23208;BMP180;11773;52.570;13.052;2023-02-10T10:32:57;103145.00;;;9.00
23208;BMP180;11773;52.570;13.052;2023-02-10T10:35:30;103128.00;;;9.10
23208;BMP180;11773;52.570;13.052;2023-02-10T10:38:00;103124.00;;;9.20
23208;BMP180;11773;52.570;13.052;2023-02-10T10:40:32;103123.00;;;9.20
23208;BMP180;11773;52.570;13.052;2023-02-10T10:43:03;103139.00;;;9.30
23208;BMP180;11773;52.570;13.052;2023-02-10T10:45:42;103115.00;;;9.30
23208;BMP180;11773;52.570;13.052;2023-02-10T10:48:22;103117.00;;;9.40
23208;BMP180;11773;52.570;13.052;2023-02-10T10:51:03;103122.00;;;9.40
23208;BMP180;11773;52.570;13.052;2023-02-10T10:53:43;103120.00;;;9.50
23208;BMP180;11773;52.570;13.052;2023-02-10T10:57:02;103126.00;;;9.60
23208;BMP180;11773;52.570;13.052;2023-02-10T10:59:37;103108.00;;;9.60
23208;BMP180;11773;52.570;13.052;2023-02-10T11:02:19;103112.00;;;9.60
23208;BMP180;11773;52.570;13.052;2023-02-10T11:05:13;103119.00;;;9.70
23208;BMP180;11773;52.570;13.052;2023-02-10T11:07:47;103107.00;;;9.70
23208;BMP180;11773;52.570;13.052;2023-02-10T11:10:28;103104.00;;;9.70
23208;BMP180;11773;52.570;13.052;2023-02-10T11:12:58;103094.00;;;9.80
23208;BMP180;11773;52.570;13.052;2023-02-10T11:15:39;103099.00;;;9.80
23208;BMP180;11773;52.570;13.052;2023-02-10T11:21:09;103094.00;;;9.90
23208;BMP180;11773;52.570;13.052;2023-02-10T11:23:51;103083.00;;;10.00
23208;BMP180;11773;52.570;13.052;2023-02-10T11:26:24;103105.00;;;10.00
23208;BMP180;11773;52.570;13.052;2023-02-10T11:28:55;103095.00;;;10.00
23208;BMP180;11773;52.570;13.052;2023-02-10T11:31:35;103091.00;;;10.10
23208;BMP180;11773;52.570;13.052;2023-02-10T11:34:17;103084.00;;;10.10
23208;BMP180;11773;52.570;13.052;2023-02-10T11:36:46;103078.00;;;10.20
23208;BMP180;11773;52.570;13.052;2023-02-10T11:39:34;103081.00;;;10.20
23208;BMP180;11773;52.570;13.052;2023-02-10T11:42:25;103087.00;;;10.20
23208;BMP180;11773;52.570;13.052;2023-02-10T11:47:41;103092.00;;;10.20
23208;BMP180;11773;52.570;13.052;2023-02-10T11:50:29;103094.00;;;10.30
23208;BMP180;11773;52.570;13.052;2023-02-10T11:52:53;103091.00;;;10.30
23208;BMP180;11773;52.570;13.052;2023-02-10T11:55:37;103075.00;;;10.30
23208;BMP180;11773;52.570;13.052;2023-02-10T12:01:44;103091.00;;;10.30
23208;BMP180;11773;52.570;13.052;2023-02-10T12:04:30;103070.00;;;10.30
23208;BMP180;11773;52.570;13.052;2023-02-10T12:07:25;103069.00;;;10.40
23208;BMP180;11773;52.570;13.052;2023-02-10T12:10:17;103066.00;;;10.40
23208;BMP180;11773;52.570;13.052;2023-02-10T12:15:41;103085.00;;;10.50
23208;BMP180;11773;52.570;13.052;2023-02-10T12:38:23;103082.00;;;10.70
23208;BMP180;11773;52.570;13.052;2023-02-10T12:41:02;103070.00;;;10.70
23208;BMP180;11773;52.570;13.052;2023-02-10T12:43:41;103059.00;;;10.70
23208;BMP180;11773;52.570;13.052;2023-02-10T12:46:49;103068.00;;;10.70
23208;BMP180;11773;52.570;13.052;2023-02-10T12:49:41;103064.00;;;10.70
23208;BMP180;11773;52.570;13.052;2023-02-10T12:52:33;103075.00;;;10.70
23208;BMP180;11773;52.570;13.052;2023-02-10T12:55:21;103059.00;;;10.70
23208;BMP180;11773;52.570;13.052;2023-02-10T12:58:00;103053.00;;;10.70
23208;BMP180;11773;52.570;13.052;2023-02-10T13:00:44;103055.00;;;10.80
23208;BMP180;11773;52.570;13.052;2023-02-10T13:03:26;103061.00;;;10.80
23208;BMP180;11773;52.570;13.052;2023-02-10T13:06:17;103047.00;;;10.80
23208;BMP180;11773;52.570;13.052;2023-02-10T13:08:48;103058.00;;;10.80
23208;BMP180;11773;52.570;13.052;2023-02-10T13:11:41;103052.00;;;10.80
23208;BMP180;11773;52.570;13.052;2023-02-10T13:14:16;103055.00;;;10.80
23208;BMP180;11773;52.570;13.052;2023-02-10T13:16:51;103055.00;;;10.90
23208;BMP180;11773;52.570;13.052;2023-02-10T13:19:27;103063.00;;;10.90
23208;BMP180;11773;52.570;13.052;2023-02-10T13:22:12;103054.00;;;10.90
23208;BMP180;11773;52.570;13.052;2023-02-10T13:25:03;103058.00;;;10.90
23208;BMP180;11773;52.570;13.052;2023-02-10T13:27:52;103052.00;;;10.90
23208;BMP180;11773;52.570;13.052;2023-02-10T13:36:11;103046.00;;;10.90
23208;BMP180;11773;52.570;13.052;2023-02-10T13:38:38;103047.00;;;10.90
23208;BMP180;11773;52.570;13.052;2023-02-10T13:41:22;103055.00;;;11.00
23208;BMP180;11773;52.570;13.052;2023-02-10T13:44:30;103047.00;;;11.00
23208;BMP180;11773;52.570;13.052;2023-02-10T13:47:36;103033.00;;;11.00
23208;BMP180;11773;52.570;13.052;2023-02-10T13:53:24;103043.00;;;11.00
23208;BMP180;11773;52.570;13.052;2023-02-10T13:55:41;103026.00;;;11.00
23208;BMP180;11773;52.570;13.052;2023-02-10T13:58:26;103045.00;;;11.10
23208;BMP180;11773;52.570;13.052;2023-02-10T14:00:57;103026.00;;;11.10
23208;BMP180;11773;52.570;13.052;2023-02-10T14:03:31;103025.00;;;11.10
23208;BMP180;11773;52.570;13.052;2023-02-10T14:06:08;103021.00;;;11.20
23208;BMP180;11773;52.570;13.052;2023-02-10T14:08:42;103010.00;;;11.20
23208;BMP180;11773;52.570;13.052;2023-02-10T14:14:04;103008.00;;;11.30
23208;BMP180;11773;52.570;13.052;2023-02-10T14:16:40;103013.00;;;11.30
23208;BMP180;11773;52.570;13.052;2023-02-10T14:19:32;103023.00;;;11.40
23208;BMP180;11773;52.570;13.052;2023-02-10T14:22:04;103013.00;;;11.40
23208;BMP180;11773;52.570;13.052;2023-02-10T14:24:43;103009.00;;;11.40
23208;BMP180;11773;52.570;13.052;2023-02-10T14:27:17;103012.00;;;11.40
23208;BMP180;11773;52.570;13.052;2023-02-10T14:29:54;103009.00;;;11.50
23208;BMP180;11773;52.570;13.052;2023-02-10T14:32:24;103003.00;;;11.50
23208;BMP180;11773;52.570;13.052;2023-02-10T14:35:00;103001.00;;;11.50
23208;BMP180;11773;52.570;13.052;2023-02-10T14:37:33;103003.00;;;11.50
23208;BMP180;11773;52.570;13.052;2023-02-10T14:40:06;102992.00;;;11.50
23208;BMP180;11773;52.570;13.052;2023-02-10T14:42:35;102993.00;;;11.50
23208;BMP180;11773;52.570;13.052;2023-02-10T14:45:06;102993.00;;;11.50
23208;BMP180;11773;52.570;13.052;2023-02-10T14:47:38;103008.00;;;11.50
23208;BMP180;11773;52.570;13.052;2023-02-10T14:53:02;102985.00;;;11.50
23208;BMP180;11773;52.570;13.052;2023-02-10T14:55:35;102981.00;;;11.50
23208;BMP180;11773;52.570;13.052;2023-02-10T14:58:16;102992.00;;;11.50
23208;BMP180;11773;52.570;13.052;2023-02-10T15:03:42;103010.00;;;11.50
23208;BMP180;11773;52.570;13.052;2023-02-10T15:06:21;102994.00;;;11.40
23208;BMP180;11773;52.570;13.052;2023-02-10T15:09:00;102997.00;;;11.40
23208;BMP180;11773;52.570;13.052;2023-02-10T15:11:54;102995.00;;;11.40
23208;BMP180;11773;52.570;13.052;2023-02-10T15:17:47;102990.00;;;11.30
23208;BMP180;11773;52.570;13.052;2023-02-10T15:20:25;102991.00;;;11.30
23208;BMP180;11773;52.570;13.052;2023-02-10T15:23:11;102985.00;;;11.30
23208;BMP180;11773;52.570;13.052;2023-02-10T15:25:39;102983.00;;;11.30
23208;BMP180;11773;52.570;13.052;2023-02-10T15:31:04;102986.00;;;11.20
23208;BMP180;11773;52.570;13.052;2023-02-10T15:36:23;102995.00;;;11.20
23208;BMP180;11773;52.570;13.052;2023-02-10T15:39:00;102988.00;;;11.20
23208;BMP180;11773;52.570;13.052;2023-02-10T15:42:19;102983.00;;;11.10
23208;BMP180;11773;52.570;13.052;2023-02-10T15:49:57;102964.00;;;11.00